createdAt,value
2022-10-14T00:00:45.781Z,3.35
2022-10-14T00:03:12.885Z,2.78
2022-10-14T00:05:40.601Z,3.22
2022-10-14T00:08:09.699Z,3.05
2022-10-14T00:10:40.256Z,2.85
2022-10-14T00:13:07.258Z,3.22
2022-10-14T00:15:41.333Z,3.10
2022-10-14T00:18:09.423Z,2.67
2022-10-14T00:20:36.441Z,2.92
2022-10-14T00:23:04.077Z,2.85
2022-10-14T00:25:31.497Z,3.03
2022-10-14T00:27:58.546Z,2.67
2022-10-14T00:30:25.361Z,2.95
2022-10-14T00:32:52.242Z,3.17
2022-10-14T00:35:19.073Z,2.83
2022-10-14T00:37:46.165Z,2.53
2022-10-14T00:40:13.279Z,2.75
2022-10-14T00:42:40.193Z,2.40
2022-10-14T00:45:13.531Z,2.25
2022-10-14T00:47:42.559Z,2.05
2022-10-14T00:50:10.512Z,2.65
2022-10-14T00:52:37.750Z,3.13
2022-10-14T00:55:16.114Z,3.15
2022-10-14T00:57:44.011Z,2.30
2022-10-14T01:00:16.077Z,2.60
2022-10-14T01:02:43.184Z,2.40
2022-10-14T01:05:13.341Z,2.58
2022-10-14T01:10:34.973Z,2.42
2022-10-14T01:13:33.507Z,2.45
2022-10-14T01:16:20.879Z,2.05
2022-10-14T01:19:00.507Z,2.60
2022-10-14T01:21:48.076Z,2.75
2022-10-14T01:24:39.529Z,2.88
2022-10-14T01:27:29.663Z,2.38
2022-10-14T01:30:11.681Z,2.85
2022-10-14T01:32:49.057Z,2.88
2022-10-14T01:35:35.568Z,2.30
2022-10-14T01:38:11.156Z,2.42
2022-10-14T01:40:55.140Z,2.75
2022-10-14T01:43:26.415Z,2.35
2022-10-14T01:45:55.740Z,2.63
2022-10-14T01:48:29.213Z,3.25
2022-10-14T01:50:59.881Z,2.47
2022-10-14T01:53:33.895Z,2.50
2022-10-14T01:56:02.673Z,2.65
2022-10-14T01:58:31.833Z,2.42
2022-10-14T02:00:59.434Z,2.40
2022-10-14T02:03:26.345Z,2.58
2022-10-14T02:06:05.937Z,2.65
2022-10-14T02:09:01.744Z,1.77
2022-10-14T02:11:37.120Z,1.83
2022-10-14T02:14:32.292Z,2.15
2022-10-14T02:17:08.544Z,1.80
2022-10-14T02:19:42.531Z,2.25
2022-10-14T02:22:21.607Z,2.17
2022-10-14T02:24:54.644Z,2.17
2022-10-14T02:27:25.978Z,1.98
2022-10-14T02:29:54.942Z,2.65
2022-10-14T02:32:25.068Z,2.15
2022-10-14T02:34:55.257Z,2.63
2022-10-14T02:37:23.759Z,2.33
2022-10-14T02:40:16.948Z,2.25
2022-10-14T02:42:43.810Z,2.17
2022-10-14T02:45:12.970Z,2.58
2022-10-14T02:47:39.757Z,3.85
2022-10-14T02:50:07.557Z,2.67
2022-10-14T02:52:34.374Z,1.88
2022-10-14T02:55:01.096Z,1.40
2022-10-14T02:57:28.106Z,1.40
2022-10-14T02:59:55.045Z,1.33
2022-10-14T03:02:22.154Z,1.40
2022-10-14T03:04:49.204Z,1.23
2022-10-14T03:07:16.035Z,1.70
2022-10-14T03:09:42.832Z,1.80
2022-10-14T03:12:10.589Z,1.88
2022-10-14T03:14:37.377Z,1.75
2022-10-14T03:17:04.297Z,1.67
2022-10-14T03:19:31.138Z,2.17
2022-10-14T03:21:59.119Z,2.35
2022-10-14T03:24:26.329Z,1.83
2022-10-14T03:26:53.159Z,1.98
2022-10-14T03:29:19.969Z,2.10
2022-10-14T03:31:46.844Z,2.10
2022-10-14T03:34:13.640Z,2.38
2022-10-14T03:36:40.349Z,2.03
2022-10-14T03:39:07.191Z,1.77
2022-10-14T03:41:34.010Z,2.30
2022-10-14T03:44:00.778Z,1.73
2022-10-14T03:46:27.765Z,2.42
2022-10-14T03:48:54.618Z,2.67
2022-10-14T03:51:21.567Z,2.38
2022-10-14T03:53:48.423Z,2.63
2022-10-14T03:56:15.401Z,2.70
2022-10-14T03:58:43.225Z,2.65
2022-10-14T04:01:10.147Z,2.97
2022-10-14T04:03:37.011Z,2.92
2022-10-14T04:06:03.945Z,3.03
2022-10-14T04:08:30.818Z,2.97
2022-10-14T04:10:58.667Z,2.45
2022-10-14T04:13:25.866Z,2.97
2022-10-14T04:15:52.693Z,3.15
2022-10-14T04:18:19.483Z,3.42
2022-10-14T04:20:47.353Z,3.22
2022-10-14T04:23:14.123Z,3.65
2022-10-14T04:25:40.936Z,3.35
2022-10-14T04:28:10.183Z,3.35
2022-10-14T04:30:36.871Z,2.75
2022-10-14T04:33:04.482Z,3.35
2022-10-14T04:35:31.235Z,3.92
2022-10-14T04:37:58.002Z,3.10
2022-10-14T04:40:26.236Z,3.53
2022-10-14T04:42:58.948Z,3.70
2022-10-14T04:45:25.964Z,3.78
2022-10-14T04:47:52.897Z,2.65
2022-10-14T04:50:20.032Z,3.83
2022-10-14T04:52:46.919Z,3.65
2022-10-14T04:55:13.886Z,3.70
2022-10-14T04:57:43.196Z,3.45
2022-10-14T05:00:12.470Z,3.70
2022-10-14T05:02:39.420Z,4.10
2022-10-14T05:05:07.187Z,3.78
2022-10-14T05:07:35.065Z,4.03
2022-10-14T05:10:04.595Z,3.38
2022-10-14T05:14:59.515Z,4.22
2022-10-14T05:17:26.371Z,4.03
2022-10-14T05:19:53.108Z,4.50
2022-10-14T05:22:21.254Z,4.70
2022-10-14T05:24:48.283Z,5.93
2022-10-14T05:27:15.216Z,5.13
2022-10-14T05:29:42.015Z,5.60
2022-10-14T05:32:09.028Z,5.40
2022-10-14T05:34:35.991Z,5.53
2022-10-14T05:37:03.481Z,4.90
2022-10-14T05:39:30.760Z,5.07
2022-10-14T05:41:58.470Z,4.88
2022-10-14T05:44:25.232Z,4.50
2022-10-14T05:46:51.931Z,4.50
2022-10-14T05:49:18.778Z,4.75
2022-10-14T05:51:45.647Z,4.47
2022-10-14T05:54:12.683Z,5.65
2022-10-14T05:56:39.515Z,4.75
2022-10-14T05:59:06.364Z,5.35
2022-10-14T06:01:36.430Z,5.47
2022-10-14T06:04:06.357Z,4.43
2022-10-14T06:06:33.500Z,5.07
2022-10-14T06:09:00.292Z,4.97
2022-10-14T06:11:27.173Z,4.78
2022-10-14T06:13:54.007Z,5.00
2022-10-14T06:16:20.995Z,5.13
2022-10-14T06:18:52.215Z,5.47
2022-10-14T06:21:21.406Z,4.93
2022-10-14T06:23:48.253Z,4.15
2022-10-14T06:26:15.151Z,3.83
2022-10-14T06:28:42.003Z,4.68
2022-10-14T06:31:09.267Z,4.38
2022-10-14T06:33:36.182Z,4.55
2022-10-14T06:36:04.912Z,5.10
2022-10-14T06:38:32.157Z,4.68
2022-10-14T06:40:59.004Z,4.55
2022-10-14T06:43:26.903Z,4.65
2022-10-14T06:45:57.640Z,4.93
2022-10-14T06:48:24.609Z,4.40
2022-10-14T06:50:52.463Z,5.07
2022-10-14T06:53:19.541Z,4.60
2022-10-14T06:55:46.502Z,4.22
2022-10-14T06:58:13.553Z,3.80
2022-10-14T07:00:48.080Z,2.53
2022-10-14T07:03:15.837Z,3.58
2022-10-14T07:05:42.671Z,3.40
2022-10-14T07:08:11.460Z,3.53
2022-10-14T07:10:41.293Z,3.40
2022-10-14T07:13:08.337Z,3.35
2022-10-14T07:15:36.259Z,3.88
2022-10-14T07:18:04.635Z,3.78
2022-10-14T07:20:31.462Z,4.13
2022-10-14T07:22:58.320Z,4.30
2022-10-14T07:25:25.184Z,4.65
2022-10-14T07:27:55.211Z,4.03
2022-10-14T07:32:48.964Z,4.57
2022-10-14T07:35:16.623Z,3.92
2022-10-14T07:37:43.453Z,3.97
2022-10-14T07:40:11.820Z,4.15
2022-10-14T07:42:38.751Z,5.05
2022-10-14T07:45:06.880Z,5.22
2022-10-14T07:47:33.922Z,4.85
2022-10-14T07:50:01.999Z,5.72
2022-10-14T07:52:30.050Z,4.40
2022-10-14T07:54:56.870Z,5.60
2022-10-14T07:57:24.101Z,5.00
2022-10-14T07:59:52.652Z,4.82
2022-10-14T08:02:19.625Z,4.32
2022-10-14T08:04:47.575Z,4.95
2022-10-14T08:07:14.779Z,5.60
2022-10-14T08:09:42.065Z,5.40
2022-10-14T08:12:08.805Z,4.93
2022-10-14T08:14:36.565Z,5.32
2022-10-14T08:17:03.627Z,6.15
2022-10-14T08:19:30.971Z,5.00
2022-10-14T08:21:57.960Z,5.63
2022-10-14T08:24:25.498Z,5.60
2022-10-14T08:26:58.994Z,4.35
2022-10-14T08:29:26.935Z,4.80
2022-10-14T08:31:55.264Z,4.55
2022-10-14T08:34:24.121Z,5.55
2022-10-14T08:36:51.891Z,4.53
2022-10-14T08:39:19.934Z,5.05
2022-10-14T08:42:25.313Z,6.18
2022-10-14T08:44:59.551Z,4.68
2022-10-14T08:47:35.636Z,4.53
2022-10-14T08:50:25.608Z,4.63
2022-10-14T08:52:52.506Z,5.10
2022-10-14T08:55:37.322Z,4.85
2022-10-14T08:58:13.477Z,4.43
2022-10-14T09:00:42.716Z,4.90
2022-10-14T09:03:20.596Z,5.57
2022-10-14T09:06:02.307Z,5.55
2022-10-14T09:08:38.460Z,5.00
2022-10-14T09:11:10.301Z,5.32
2022-10-14T09:13:41.156Z,5.05
2022-10-14T09:16:24.455Z,4.82
2022-10-14T09:19:00.362Z,4.22
2022-10-14T09:21:54.499Z,4.32
2022-10-14T09:24:26.713Z,5.10
2022-10-14T09:27:07.614Z,4.22
2022-10-14T09:29:47.086Z,4.75
2022-10-14T09:32:36.350Z,3.85
2022-10-14T09:35:04.406Z,3.78
2022-10-14T09:37:36.564Z,4.00
2022-10-14T09:40:17.404Z,3.25
2022-10-14T09:43:08.351Z,3.30
2022-10-14T09:46:01.955Z,3.95
2022-10-14T09:48:40.030Z,3.10
2022-10-14T09:51:22.147Z,3.13
2022-10-14T09:53:57.895Z,3.00
2022-10-14T09:56:40.700Z,2.63
2022-10-14T09:59:23.303Z,2.42
2022-10-14T10:02:00.554Z,2.42
2022-10-14T10:04:35.063Z,2.08
2022-10-14T10:07:07.251Z,3.03
2022-10-14T10:09:34.781Z,2.10
2022-10-14T10:12:32.038Z,2.85
2022-10-14T10:15:05.415Z,2.53
2022-10-14T10:17:36.013Z,2.50
2022-10-14T10:20:28.585Z,2.38
2022-10-14T10:22:56.724Z,2.65
2022-10-14T10:25:27.891Z,2.00
2022-10-14T18:58:38.512Z,2.53
2022-10-14T19:01:06.421Z,2.72
2022-10-14T19:03:39.948Z,3.40
2022-10-14T19:06:08.296Z,3.22
2022-10-14T19:08:37.368Z,3.20
2022-10-14T19:11:06.178Z,3.45
2022-10-14T19:13:33.186Z,4.18
2022-10-14T19:16:08.896Z,4.03
2022-10-14T19:18:35.931Z,4.28
2022-10-14T19:21:09.347Z,4.65
2022-10-14T19:23:37.228Z,4.18
2022-10-14T20:13:20.631Z,2.25
2022-10-14T20:15:54.927Z,2.25
2022-10-14T20:18:22.000Z,2.53
2022-10-14T20:20:49.531Z,2.80
2022-10-14T20:23:17.786Z,2.55
2022-10-14T20:25:45.334Z,2.30
2022-10-14T20:28:12.599Z,2.38
2022-10-14T20:30:40.651Z,2.22
2022-10-14T20:33:09.178Z,2.50
2022-10-14T20:35:36.049Z,2.15
2022-10-14T20:38:03.218Z,2.25
2022-10-14T20:40:30.286Z,2.20
2022-10-14T20:42:57.127Z,2.78
2022-10-14T20:45:23.937Z,2.63
2022-10-14T20:47:53.740Z,2.90
2022-10-14T20:50:22.405Z,2.60
2022-10-14T20:52:49.377Z,1.88
2022-10-14T20:55:16.268Z,1.73
2022-10-14T20:57:43.174Z,2.17
2022-10-14T21:00:10.524Z,2.28
2022-10-14T21:02:39.616Z,2.20
2022-10-14T21:05:06.729Z,2.13
2022-10-14T21:07:33.600Z,2.13
2022-10-14T21:10:00.453Z,1.08
2022-10-14T21:12:27.225Z,1.88
2022-10-14T21:14:53.996Z,1.92
2022-10-14T21:17:20.783Z,2.60
2022-10-14T21:19:48.306Z,2.40
2022-10-14T21:22:15.141Z,2.17
2022-10-14T21:24:42.070Z,2.60
2022-10-14T21:27:09.002Z,2.50
2022-10-14T21:29:35.973Z,2.60
